DAL157 DGAA-KJFK
Flight info
| Callsign | DAL157 |
|---|---|
| Flight time | N/A |
| Altitude | 38000 |
| Route | ACC UL433 TUSEK DCT PIVKI UR979 ANITI UR976 LUMPO/M083F380 DCT TEGTO DCT 25N040W 29N050W 3430N06000W DCT MARIG/N0474F380 DCT MOUGH Y495 CAMRN CAMRN5 |
| Aircraft | A339/H-SADE1E2E3GHIJ3J5M1P2RWXY/LB2D1 |
Departure
| Time | 2026-05-04 16:05 |
|---|---|
| Airport | Kotoka International Airport (DGAA) |
Arrival
| Time | N/A |
|---|---|
| Airport | John F. Kennedy International Airport (KJFK) |
| Time | Latitude | Longitude | Altitude | Speed | Heading |
|---|---|---|---|---|---|
| 2026-05-04 15:29 | 5.60165 | -0.17189 | 222 ft | 0 kts | 292° |
| 2026-05-04 15:48 | 5.60162 | -0.17182 | 222 ft | 2 kts | 292° |
| 2026-05-04 15:48 | 5.60156 | -0.17168 | 222 ft | 2 kts | 292° |
| 2026-05-04 15:48 | 5.60145 | -0.17140 | 221 ft | 2 kts | 292° |
| 2026-05-04 15:49 | 5.60139 | -0.17126 | 220 ft | 2 kts | 292° |
| 2026-05-04 15:49 | 5.60132 | -0.17108 | 220 ft | 2 kts | 292° |
| 2026-05-04 15:49 | 5.60129 | -0.17100 | 220 ft | 1 kts | 303° |
| 2026-05-04 15:49 | 5.60117 | -0.17092 | 220 ft | 1 kts | 2° |
| 2026-05-04 15:50 | 5.60109 | -0.17095 | 220 ft | 2 kts | 40° |
| 2026-05-04 15:50 | 5.60102 | -0.17101 | 220 ft | 1 kts | 46° |
| 2026-05-04 15:54 | 5.60104 | -0.17099 | 220 ft | 0 kts | 45° |
| 2026-05-04 15:54 | 5.60109 | -0.17095 | 220 ft | 1 kts | 35° |
| 2026-05-04 15:54 | 5.60119 | -0.17090 | 220 ft | 1 kts | 23° |
| 2026-05-04 15:55 | 5.60133 | -0.17086 | 220 ft | 2 kts | 16° |
| 2026-05-04 15:55 | 5.60152 | -0.17080 | 220 ft | 3 kts | 18° |
| 2026-05-04 15:55 | 5.60177 | -0.17071 | 221 ft | 2 kts | 20° |
| 2026-05-04 15:55 | 5.60188 | -0.17067 | 221 ft | 1 kts | 21° |
| 2026-05-04 15:56 | 5.60196 | -0.17064 | 222 ft | 1 kts | 21° |
| 2026-05-04 15:56 | 5.60200 | -0.17062 | 222 ft | 0 kts | 22° |
| 2026-05-04 15:56 | 5.60201 | -0.17062 | 222 ft | 0 kts | 22° |
| 2026-05-04 15:57 | 5.60205 | -0.17060 | 222 ft | 2 kts | 22° |
| 2026-05-04 15:57 | 5.60233 | -0.17049 | 223 ft | 6 kts | 22° |
| 2026-05-04 15:57 | 5.60282 | -0.17029 | 226 ft | 8 kts | 22° |
| 2026-05-04 15:58 | 5.60345 | -0.17004 | 229 ft | 10 kts | 22° |
| 2026-05-04 15:58 | 5.60401 | -0.16980 | 231 ft | 7 kts | 22° |
| 2026-05-04 15:58 | 5.60450 | -0.16960 | 234 ft | 4 kts | 22° |
| 2026-05-04 15:58 | 5.60465 | -0.16953 | 234 ft | 2 kts | 22° |
| 2026-05-04 15:59 | 5.60482 | -0.16946 | 235 ft | 1 kts | 22° |
| 2026-05-04 15:59 | 5.60485 | -0.16945 | 235 ft | 0 kts | 21° |
| 2026-05-04 15:59 | 5.60484 | -0.16946 | 235 ft | 0 kts | 21° |
| 2026-05-04 16:01 | 5.60487 | -0.16945 | 235 ft | 0 kts | 21° |
| 2026-05-04 16:01 | 5.60495 | -0.16941 | 236 ft | 7 kts | 21° |
| 2026-05-04 16:01 | 5.60603 | -0.16899 | 240 ft | 17 kts | 21° |
| 2026-05-04 16:02 | 5.60739 | -0.16841 | 242 ft | 15 kts | 23° |
| 2026-05-04 16:02 | 5.60803 | -0.16814 | 243 ft | 14 kts | 21° |
| 2026-05-04 16:02 | 5.60991 | -0.16737 | 243 ft | 14 kts | 22° |
| 2026-05-04 16:03 | 5.61126 | -0.16682 | 240 ft | 16 kts | 22° |
| 2026-05-04 16:03 | 5.61199 | -0.16652 | 239 ft | 17 kts | 22° |
| 2026-05-04 16:03 | 5.61316 | -0.16604 | 236 ft | 18 kts | 22° |
| 2026-05-04 16:03 | 5.61444 | -0.16551 | 232 ft | 20 kts | 22° |
| 2026-05-04 16:04 | 5.61564 | -0.16419 | 218 ft | 23 kts | 96° |
| 2026-05-04 16:04 | 5.61386 | -0.16363 | 221 ft | 22 kts | 201° |
| 2026-05-04 16:04 | 5.61039 | -0.16504 | 230 ft | 84 kts | 202° |
| 2026-05-04 16:05 | 5.60303 | -0.16807 | 218 ft | 140 kts | 198° |
| 2026-05-04 16:05 | 5.58831 | -0.17420 | 310 ft | 192 kts | 202° |
| 2026-05-04 16:05 | 5.56139 | -0.18563 | 1145 ft | 214 kts | 201° |
| 2026-05-04 16:06 | 5.55203 | -0.18954 | 1443 ft | 217 kts | 201° |
| 2026-05-04 16:06 | 5.53547 | -0.23018 | 2177 ft | 265 kts | 299° |
| 2026-05-04 16:07 | 5.54823 | -0.24387 | 2543 ft | 272 kts | 327° |
| 2026-05-04 16:07 | 5.57939 | -0.29658 | 4260 ft | 278 kts | 284° |
| 2026-05-04 16:08 | 5.58237 | -0.30940 | 4593 ft | 280 kts | 284° |
| 2026-05-04 16:08 | 5.59588 | -0.36704 | 6016 ft | 288 kts | 285° |
| 2026-05-04 16:09 | 5.60712 | -0.41346 | 7055 ft | 296 kts | 286° |
| 2026-05-04 16:09 | 5.61705 | -0.45413 | 7880 ft | 305 kts | 286° |
| 2026-05-04 16:10 | 5.62561 | -0.48914 | 8594 ft | 311 kts | 287° |
| 2026-05-04 16:11 | 5.64136 | -0.55361 | 9875 ft | 323 kts | 287° |
| 2026-05-04 16:11 | 5.64682 | -0.57586 | 10288 ft | 328 kts | 287° |
| 2026-05-04 16:12 | 5.66411 | -0.64641 | 10946 ft | 366 kts | 286° |
| 2026-05-04 16:12 | 5.68315 | -0.72443 | 11567 ft | 401 kts | 285° |
| 2026-05-04 16:13 | 5.69679 | -0.78042 | 12162 ft | 418 kts | 285° |
| 2026-05-04 16:13 | 5.71305 | -0.84720 | 13335 ft | 424 kts | 285° |
| 2026-05-04 16:14 | 5.72474 | -0.89531 | 14198 ft | 427 kts | 285° |
| 2026-05-04 16:14 | 5.73887 | -0.95343 | 15235 ft | 430 kts | 285° |
| 2026-05-04 16:15 | 5.76028 | -1.04147 | 16773 ft | 435 kts | 285° |
| 2026-05-04 16:16 | 5.77468 | -1.10066 | 17759 ft | 439 kts | 285° |
| 2026-05-04 16:16 | 5.79659 | -1.19053 | 19176 ft | 445 kts | 285° |
| 2026-05-04 16:17 | 5.81135 | -1.25122 | 20086 ft | 449 kts | 285° |
| 2026-05-04 16:18 | 5.83367 | -1.34318 | 21343 ft | 455 kts | 284° |
| 2026-05-04 16:18 | 5.84125 | -1.37442 | 21747 ft | 457 kts | 284° |
| 2026-05-04 16:19 | 5.86392 | -1.46794 | 22881 ft | 463 kts | 284° |
| 2026-05-04 16:19 | 5.87920 | -1.53101 | 23632 ft | 466 kts | 284° |
| 2026-05-04 16:20 | 5.90228 | -1.62634 | 24673 ft | 471 kts | 284° |
| 2026-05-04 16:20 | 5.91779 | -1.69044 | 25319 ft | 473 kts | 284° |
| 2026-05-04 16:21 | 5.94130 | -1.78763 | 26197 ft | 478 kts | 284° |
| 2026-05-04 16:22 | 5.95696 | -1.85240 | 26765 ft | 480 kts | 284° |
| 2026-05-04 16:22 | 5.98069 | -1.95066 | 27552 ft | 484 kts | 284° |
| 2026-05-04 16:23 | 6.00460 | -2.04970 | 28317 ft | 487 kts | 284° |
| 2026-05-04 16:24 | 6.03656 | -2.18227 | 29235 ft | 490 kts | 284° |
| 2026-05-04 16:25 | 6.05266 | -2.24905 | 29645 ft | 492 kts | 284° |
| 2026-05-04 16:26 | 6.08476 | -2.38244 | 30706 ft | 488 kts | 284° |
| 2026-05-04 16:26 | 6.10871 | -2.48208 | 31519 ft | 484 kts | 284° |
| 2026-05-04 16:27 | 6.12448 | -2.54770 | 32021 ft | 482 kts | 284° |
| 2026-05-04 16:28 | 6.14800 | -2.64565 | 32718 ft | 479 kts | 284° |
| 2026-05-04 16:28 | 6.17136 | -2.74303 | 33426 ft | 475 kts | 284° |
| 2026-05-04 16:29 | 6.20216 | -2.87145 | 34218 ft | 472 kts | 284° |
| 2026-05-04 16:30 | 6.22520 | -2.96767 | 34750 ft | 470 kts | 284° |
| 2026-05-04 16:31 | 6.24048 | -3.03154 | 34910 ft | 470 kts | 284° |
| 2026-05-04 16:31 | 6.26338 | -3.12737 | 35160 ft | 470 kts | 284° |
| 2026-05-04 16:32 | 6.28389 | -3.22337 | 35636 ft | 468 kts | 281° |
| 2026-05-04 16:33 | 6.29519 | -3.28750 | 35895 ft | 467 kts | 281° |
| 2026-05-04 16:33 | 6.30648 | -3.35176 | 36183 ft | 466 kts | 281° |
| 2026-05-04 16:34 | 6.31776 | -3.41588 | 36365 ft | 466 kts | 281° |
| 2026-05-04 16:34 | 6.32335 | -3.44768 | 36445 ft | 466 kts | 281° |
| 2026-05-04 16:35 | 6.34022 | -3.54370 | 36693 ft | 466 kts | 281° |
| 2026-05-04 16:35 | 6.35711 | -3.63992 | 36916 ft | 466 kts | 281° |
| 2026-05-04 16:36 | 6.36462 | -3.68277 | 37042 ft | 465 kts | 281° |
| 2026-05-04 16:36 | 6.37398 | -3.73613 | 37168 ft | 465 kts | 281° |
| 2026-05-04 16:37 | 6.38518 | -3.80007 | 37298 ft | 465 kts | 281° |
| 2026-05-04 16:37 | 6.39084 | -3.83240 | 37381 ft | 465 kts | 281° |
| 2026-05-04 16:37 | 6.40203 | -3.89633 | 37508 ft | 465 kts | 281° |
| 2026-05-04 16:38 | 6.41320 | -3.96013 | 37618 ft | 465 kts | 281° |
| 2026-05-04 16:39 | 6.43001 | -4.05637 | 37796 ft | 465 kts | 281° |
| 2026-05-04 16:39 | 6.44118 | -4.12039 | 37876 ft | 466 kts | 281° |
| 2026-05-04 16:40 | 6.46360 | -4.24893 | 37919 ft | 467 kts | 281° |
| 2026-05-04 16:41 | 6.49166 | -4.41015 | 37918 ft | 467 kts | 281° |
| 2026-05-04 16:43 | 6.51956 | -4.57074 | 37913 ft | 467 kts | 281° |
| 2026-05-04 16:43 | 6.53629 | -4.66724 | 37911 ft | 466 kts | 280° |
| 2026-05-04 16:45 | 6.56966 | -4.85998 | 37910 ft | 467 kts | 280° |
| 2026-05-04 16:46 | 6.59742 | -5.02063 | 37916 ft | 467 kts | 280° |
| 2026-05-04 16:47 | 6.61963 | -5.14940 | 37922 ft | 467 kts | 280° |
| 2026-05-04 16:48 | 6.64170 | -5.27760 | 37928 ft | 466 kts | 281° |
| 2026-05-04 16:49 | 6.66379 | -5.40608 | 37925 ft | 467 kts | 281° |
| 2026-05-04 16:50 | 6.68584 | -5.53458 | 37922 ft | 466 kts | 281° |
| 2026-05-04 16:51 | 6.70240 | -5.63120 | 37925 ft | 467 kts | 280° |
| 2026-05-04 16:52 | 6.72437 | -5.75964 | 37930 ft | 466 kts | 280° |
| 2026-05-04 16:53 | 6.74120 | -5.85615 | 37934 ft | 466 kts | 283° |
| 2026-05-04 16:53 | 6.77038 | -5.94914 | 37939 ft | 464 kts | 294° |
| 2026-05-04 16:54 | 6.78395 | -5.97839 | 37941 ft | 464 kts | 297° |
| 2026-05-04 16:55 | 6.89062 | -6.14061 | 37941 ft | 463 kts | 305° |
| 2026-05-04 16:56 | 6.98307 | -6.27382 | 37942 ft | 463 kts | 305° |
| 2026-05-04 16:57 | 7.03834 | -6.35358 | 37944 ft | 463 kts | 305° |
| 2026-05-04 16:58 | 7.11226 | -6.46030 | 37945 ft | 463 kts | 305° |
| 2026-05-04 17:00 | 7.22296 | -6.62029 | 37941 ft | 463 kts | 305° |
| 2026-05-04 17:01 | 7.31513 | -6.75361 | 37940 ft | 463 kts | 304° |
| 2026-05-04 17:02 | 7.38868 | -6.86007 | 37940 ft | 463 kts | 305° |
| 2026-05-04 17:03 | 7.44388 | -6.94001 | 37939 ft | 463 kts | 304° |
| 2026-05-04 17:03 | 7.49911 | -7.02004 | 37935 ft | 463 kts | 304° |
| 2026-05-04 17:04 | 7.57875 | -7.13553 | 37942 ft | 463 kts | 304° |
| 2026-05-04 17:05 | 7.64623 | -7.23344 | 37957 ft | 462 kts | 305° |
| 2026-05-04 17:06 | 7.70116 | -7.31320 | 37977 ft | 462 kts | 304° |
| 2026-05-04 17:07 | 7.75019 | -7.38442 | 38002 ft | 462 kts | 305° |
| 2026-05-04 17:07 | 7.79287 | -7.44646 | 38014 ft | 462 kts | 305° |
| 2026-05-04 17:08 | 7.84797 | -7.52656 | 38015 ft | 462 kts | 304° |
| 2026-05-04 17:09 | 7.88464 | -7.57990 | 38003 ft | 462 kts | 304° |
| 2026-05-04 17:09 | 7.92131 | -7.63326 | 37991 ft | 462 kts | 305° |
| 2026-05-04 17:10 | 8.01308 | -7.76689 | 37976 ft | 461 kts | 304° |
| 2026-05-04 17:11 | 8.04967 | -7.82021 | 37976 ft | 462 kts | 304° |
| 2026-05-04 17:12 | 8.10467 | -7.90038 | 37978 ft | 462 kts | 304° |
| 2026-05-04 17:13 | 8.19608 | -8.03375 | 37982 ft | 461 kts | 304° |
| 2026-05-04 17:14 | 8.26935 | -8.14077 | 37984 ft | 461 kts | 304° |
| 2026-05-04 17:15 | 8.32395 | -8.22059 | 37984 ft | 461 kts | 304° |
| 2026-05-04 17:16 | 8.39724 | -8.32761 | 37988 ft | 461 kts | 304° |
| 2026-05-04 17:17 | 8.47042 | -8.43425 | 37996 ft | 461 kts | 304° |
| 2026-05-04 17:18 | 8.54355 | -8.54102 | 38008 ft | 461 kts | 304° |
| 2026-05-04 17:19 | 8.61666 | -8.64786 | 38017 ft | 461 kts | 304° |
| 2026-05-04 17:20 | 8.68975 | -8.75477 | 38013 ft | 461 kts | 304° |
| 2026-05-04 17:20 | 8.74432 | -8.83464 | 38009 ft | 461 kts | 304° |
| 2026-05-04 17:21 | 8.81738 | -8.94166 | 38008 ft | 461 kts | 304° |
| 2026-05-04 17:22 | 8.85377 | -8.99499 | 38006 ft | 460 kts | 304° |
| 2026-05-04 17:23 | 8.92645 | -9.10159 | 38010 ft | 460 kts | 304° |
| 2026-05-04 17:24 | 8.98108 | -9.18180 | 38018 ft | 460 kts | 304° |
| 2026-05-04 17:25 | 9.05390 | -9.28872 | 38029 ft | 460 kts | 305° |
| 2026-05-04 17:26 | 9.12974 | -9.39375 | 38033 ft | 460 kts | 306° |
| 2026-05-04 17:27 | 9.22414 | -9.52458 | 38041 ft | 460 kts | 306° |
| 2026-05-04 17:28 | 9.29974 | -9.62963 | 38019 ft | 460 kts | 306° |
| 2026-05-04 17:29 | 9.41296 | -9.78717 | 37986 ft | 460 kts | 306° |
| 2026-05-04 17:31 | 9.50712 | -9.91835 | 37982 ft | 460 kts | 306° |
| 2026-05-04 17:32 | 9.60115 | -10.04954 | 37981 ft | 460 kts | 306° |
| 2026-05-04 17:33 | 9.67638 | -10.15477 | 37985 ft | 460 kts | 306° |
| 2026-05-04 17:34 | 9.75151 | -10.26013 | 37994 ft | 460 kts | 306° |
| 2026-05-04 17:35 | 9.84509 | -10.39151 | 37983 ft | 459 kts | 306° |
| 2026-05-04 17:36 | 9.88244 | -10.44400 | 37979 ft | 459 kts | 306° |
| 2026-05-04 17:36 | 9.91985 | -10.49659 | 37975 ft | 460 kts | 306° |
| 2026-05-04 17:37 | 9.95747 | -10.54950 | 37973 ft | 459 kts | 306° |
| 2026-05-04 17:37 | 9.99471 | -10.60192 | 37971 ft | 459 kts | 306° |
| 2026-05-04 17:38 | 10.03214 | -10.65465 | 37971 ft | 459 kts | 306° |
| 2026-05-04 17:38 | 10.06959 | -10.70742 | 37970 ft | 459 kts | 306° |
| 2026-05-04 17:39 | 10.12229 | -10.78888 | 37969 ft | 460 kts | 302° |
| 2026-05-04 17:39 | 10.15590 | -10.84437 | 37970 ft | 459 kts | 301° |
| 2026-05-04 17:40 | 10.18928 | -10.89951 | 37971 ft | 459 kts | 302° |
| 2026-05-04 17:40 | 10.22271 | -10.95470 | 37971 ft | 459 kts | 302° |
| 2026-05-04 17:41 | 10.25747 | -11.00894 | 37971 ft | 459 kts | 306° |
| 2026-05-04 17:41 | 10.29614 | -11.06056 | 37981 ft | 459 kts | 307° |
| 2026-05-04 17:42 | 10.33524 | -11.11198 | 37992 ft | 458 kts | 307° |
| 2026-05-04 17:42 | 10.37432 | -11.16346 | 38001 ft | 459 kts | 307° |
| 2026-05-04 17:43 | 10.41314 | -11.21464 | 38007 ft | 459 kts | 307° |
| 2026-05-04 17:43 | 10.45196 | -11.26588 | 38011 ft | 459 kts | 307° |
| 2026-05-04 17:44 | 10.49101 | -11.31744 | 38009 ft | 458 kts | 307° |
| 2026-05-04 17:44 | 10.52996 | -11.36889 | 38009 ft | 459 kts | 307° |
| 2026-05-04 17:45 | 10.56891 | -11.42038 | 38012 ft | 458 kts | 307° |
| 2026-05-04 17:45 | 10.60772 | -11.47173 | 38014 ft | 458 kts | 307° |
| 2026-05-04 17:46 | 10.64674 | -11.52338 | 38015 ft | 459 kts | 307° |
| 2026-05-04 17:46 | 10.68518 | -11.57495 | 38013 ft | 459 kts | 306° |
| 2026-05-04 17:47 | 10.72264 | -11.62736 | 38009 ft | 459 kts | 306° |
| 2026-05-04 17:47 | 10.76652 | -11.68884 | 38003 ft | 458 kts | 306° |
| 2026-05-04 17:48 | 10.79779 | -11.73257 | 38000 ft | 459 kts | 306° |
| 2026-05-04 17:48 | 10.83532 | -11.78505 | 38000 ft | 458 kts | 306° |
| 2026-05-04 17:49 | 10.87297 | -11.83769 | 38006 ft | 458 kts | 306° |
| 2026-05-04 17:49 | 10.91048 | -11.89017 | 38012 ft | 459 kts | 306° |
| 2026-05-04 17:50 | 10.94793 | -11.94258 | 38016 ft | 458 kts | 306° |
| 2026-05-04 17:50 | 10.98534 | -11.99497 | 38019 ft | 458 kts | 306° |
| 2026-05-04 17:51 | 11.02306 | -12.04782 | 38018 ft | 457 kts | 306° |
| 2026-05-04 17:51 | 11.06033 | -12.10007 | 38019 ft | 458 kts | 306° |
| 2026-05-04 17:52 | 11.09784 | -12.15267 | 38025 ft | 458 kts | 306° |
| 2026-05-04 17:52 | 11.13543 | -12.20543 | 38035 ft | 458 kts | 306° |
| 2026-05-04 17:53 | 11.17278 | -12.25788 | 38047 ft | 458 kts | 306° |
| 2026-05-04 17:53 | 11.21022 | -12.31050 | 38056 ft | 458 kts | 306° |
| 2026-05-04 17:54 | 11.24768 | -12.36316 | 38060 ft | 458 kts | 306° |
| 2026-05-04 17:54 | 11.28438 | -12.41623 | 38059 ft | 458 kts | 305° |
| 2026-05-04 17:55 | 11.32062 | -12.46948 | 38055 ft | 458 kts | 304° |
| 2026-05-04 17:55 | 11.35698 | -12.52284 | 38051 ft | 458 kts | 305° |
| 2026-05-04 17:56 | 11.39340 | -12.57626 | 38041 ft | 458 kts | 305° |
| 2026-05-04 17:56 | 11.42980 | -12.62966 | 38026 ft | 458 kts | 305° |
| 2026-05-04 17:57 | 11.46623 | -12.68312 | 38008 ft | 458 kts | 304° |
| 2026-05-04 17:57 | 11.50250 | -12.73638 | 37987 ft | 458 kts | 304° |
| 2026-05-04 17:58 | 11.53898 | -12.78997 | 37971 ft | 457 kts | 304° |
| 2026-05-04 17:58 | 11.57523 | -12.84325 | 37967 ft | 457 kts | 304° |
| 2026-05-04 17:59 | 11.61143 | -12.89648 | 37964 ft | 457 kts | 304° |
| 2026-05-04 18:00 | 11.66572 | -12.97638 | 37954 ft | 457 kts | 304° |
| 2026-05-04 18:00 | 11.70221 | -13.03014 | 37943 ft | 458 kts | 304° |
| 2026-05-04 18:01 | 11.73834 | -13.08341 | 37932 ft | 457 kts | 304° |
| 2026-05-04 18:01 | 11.77448 | -13.13661 | 37924 ft | 457 kts | 306° |
| 2026-05-04 18:02 | 11.83356 | -13.21300 | 37919 ft | 457 kts | 309° |
| 2026-05-04 18:02 | 11.87397 | -13.26378 | 37915 ft | 457 kts | 309° |
| 2026-05-04 18:03 | 11.91395 | -13.31411 | 37914 ft | 457 kts | 309° |
| 2026-05-04 18:03 | 11.95404 | -13.36464 | 37914 ft | 457 kts | 309° |
| 2026-05-04 18:04 | 11.99404 | -13.41508 | 37915 ft | 457 kts | 309° |
| 2026-05-04 18:05 | 12.05407 | -13.49085 | 37917 ft | 457 kts | 309° |
| 2026-05-04 18:05 | 12.09400 | -13.54129 | 37916 ft | 457 kts | 309° |
| 2026-05-04 18:06 | 12.15419 | -13.61739 | 37912 ft | 457 kts | 309° |
| 2026-05-04 18:06 | 12.19419 | -13.66801 | 37910 ft | 456 kts | 309° |
| 2026-05-04 18:07 | 12.23420 | -13.71867 | 37906 ft | 457 kts | 309° |
| 2026-05-04 18:07 | 12.27336 | -13.76969 | 37903 ft | 456 kts | 306° |
| 2026-05-04 18:08 | 12.30981 | -13.82285 | 37902 ft | 456 kts | 305° |
| 2026-05-04 18:08 | 12.34618 | -13.87634 | 37903 ft | 456 kts | 305° |
| 2026-05-04 18:09 | 12.41873 | -13.98307 | 37902 ft | 456 kts | 305° |
| 2026-05-04 18:10 | 12.45496 | -14.03641 | 37903 ft | 456 kts | 304° |
| 2026-05-04 18:10 | 12.49128 | -14.08989 | 37903 ft | 457 kts | 304° |
| 2026-05-04 18:11 | 12.52752 | -14.14330 | 37902 ft | 456 kts | 304° |
| 2026-05-04 18:11 | 12.56368 | -14.19661 | 37902 ft | 456 kts | 304° |
| 2026-05-04 18:12 | 12.60002 | -14.25023 | 37901 ft | 456 kts | 305° |
| 2026-05-04 18:12 | 12.63605 | -14.30343 | 37901 ft | 456 kts | 305° |
| 2026-05-04 18:13 | 12.67210 | -14.35669 | 37900 ft | 456 kts | 305° |
| 2026-05-04 18:14 | 12.72638 | -14.43697 | 37900 ft | 456 kts | 305° |
| 2026-05-04 18:14 | 12.76259 | -14.49050 | 37900 ft | 456 kts | 305° |
| 2026-05-04 18:15 | 12.83488 | -14.59740 | 37901 ft | 455 kts | 305° |
| 2026-05-04 18:16 | 12.87093 | -14.65081 | 37902 ft | 456 kts | 304° |
| 2026-05-04 18:16 | 12.90706 | -14.70437 | 37902 ft | 456 kts | 304° |
| 2026-05-04 18:17 | 12.96107 | -14.78451 | 37903 ft | 455 kts | 304° |
| 2026-05-04 18:18 | 13.01518 | -14.86487 | 37902 ft | 456 kts | 304° |
| 2026-05-04 18:18 | 13.05131 | -14.91857 | 37902 ft | 456 kts | 304° |
| 2026-05-04 18:19 | 13.10522 | -14.99877 | 37902 ft | 455 kts | 304° |
| 2026-05-04 18:19 | 13.14130 | -15.05251 | 37901 ft | 455 kts | 304° |
| 2026-05-04 18:20 | 13.17740 | -15.10629 | 37900 ft | 456 kts | 304° |
| 2026-05-04 18:20 | 13.21343 | -15.15995 | 37900 ft | 456 kts | 304° |
| 2026-05-04 18:21 | 13.24940 | -15.21352 | 37898 ft | 455 kts | 304° |
| 2026-05-04 18:21 | 13.28522 | -15.26695 | 37897 ft | 455 kts | 304° |
| 2026-05-04 18:22 | 13.32115 | -15.32059 | 37897 ft | 455 kts | 304° |
| 2026-05-04 18:22 | 13.35703 | -15.37420 | 37896 ft | 455 kts | 304° |
| 2026-05-04 18:23 | 13.39286 | -15.42777 | 37895 ft | 455 kts | 304° |
| 2026-05-04 18:23 | 13.42890 | -15.48168 | 37894 ft | 455 kts | 304° |
| 2026-05-04 18:24 | 13.46469 | -15.53526 | 37894 ft | 455 kts | 304° |
| 2026-05-04 18:24 | 13.50035 | -15.58868 | 37895 ft | 455 kts | 304° |
| 2026-05-04 18:25 | 13.53624 | -15.64247 | 37896 ft | 455 kts | 304° |
| 2026-05-04 18:25 | 13.57206 | -15.69620 | 37897 ft | 455 kts | 304° |
| 2026-05-04 18:26 | 13.60792 | -15.75001 | 37898 ft | 455 kts | 304° |
| 2026-05-04 18:26 | 13.64356 | -15.80353 | 37899 ft | 455 kts | 304° |
| 2026-05-04 18:27 | 13.67939 | -15.85737 | 37899 ft | 455 kts | 304° |
| 2026-05-04 18:27 | 13.72112 | -15.92012 | 37899 ft | 454 kts | 304° |
| 2026-05-04 18:28 | 13.75082 | -15.96480 | 37899 ft | 455 kts | 304° |
| 2026-05-04 18:28 | 13.78654 | -16.01858 | 37899 ft | 455 kts | 304° |
| 2026-05-04 18:29 | 13.82221 | -16.07231 | 37899 ft | 455 kts | 304° |
| 2026-05-04 18:29 | 13.85779 | -16.12594 | 37899 ft | 455 kts | 304° |
| 2026-05-04 18:30 | 13.91124 | -16.20658 | 37898 ft | 454 kts | 304° |
| 2026-05-04 18:31 | 13.94698 | -16.26054 | 37897 ft | 454 kts | 304° |
| 2026-05-04 18:31 | 13.98263 | -16.31439 | 37897 ft | 455 kts | 304° |
| 2026-05-04 18:32 | 14.01836 | -16.36841 | 37896 ft | 454 kts | 304° |
| 2026-05-04 18:32 | 14.05387 | -16.42213 | 37895 ft | 454 kts | 304° |
| 2026-05-04 18:33 | 14.08934 | -16.47582 | 37895 ft | 454 kts | 304° |
| 2026-05-04 18:33 | 14.12504 | -16.52990 | 37894 ft | 454 kts | 304° |
| 2026-05-04 18:34 | 14.16037 | -16.58344 | 37894 ft | 454 kts | 304° |
| 2026-05-04 18:34 | 14.19594 | -16.63739 | 37894 ft | 454 kts | 304° |
| 2026-05-04 18:35 | 14.23157 | -16.69146 | 37895 ft | 454 kts | 304° |
| 2026-05-04 18:35 | 14.26707 | -16.74538 | 37895 ft | 454 kts | 304° |
| 2026-05-04 18:36 | 14.30253 | -16.79925 | 37895 ft | 454 kts | 304° |
| 2026-05-04 18:36 | 14.33798 | -16.85316 | 37895 ft | 454 kts | 304° |
| 2026-05-04 18:37 | 14.37352 | -16.90725 | 37895 ft | 454 kts | 304° |
| 2026-05-04 18:37 | 14.40885 | -16.96104 | 37896 ft | 454 kts | 304° |
| 2026-05-04 18:38 | 14.44432 | -17.01509 | 37896 ft | 453 kts | 304° |
| 2026-05-04 18:38 | 14.47973 | -17.06909 | 37896 ft | 454 kts | 304° |
| 2026-05-04 18:39 | 14.51497 | -17.12285 | 37896 ft | 454 kts | 304° |
| 2026-05-04 18:39 | 14.55031 | -17.17681 | 37895 ft | 453 kts | 304° |
| 2026-05-04 18:40 | 14.58576 | -17.23098 | 37895 ft | 454 kts | 304° |
| 2026-05-04 18:40 | 14.62093 | -17.28477 | 37895 ft | 453 kts | 304° |
| 2026-05-04 18:41 | 14.65631 | -17.33893 | 37896 ft | 454 kts | 304° |
| 2026-05-04 18:41 | 14.69176 | -17.39323 | 37896 ft | 453 kts | 304° |
| 2026-05-04 18:42 | 14.72610 | -17.44766 | 37897 ft | 453 kts | 301° |
| 2026-05-04 18:42 | 14.75543 | -17.50518 | 37898 ft | 454 kts | 295° |
| 2026-05-04 18:43 | 14.77946 | -17.56539 | 37897 ft | 454 kts | 292° |
| 2026-05-04 18:43 | 14.80240 | -17.62613 | 37896 ft | 454 kts | 292° |
| 2026-05-04 18:44 | 14.82540 | -17.68704 | 37895 ft | 454 kts | 291° |
| 2026-05-04 18:44 | 14.84836 | -17.74780 | 37894 ft | 453 kts | 291° |
| 2026-05-04 18:45 | 14.87126 | -17.80840 | 37894 ft | 454 kts | 291° |
| 2026-05-04 18:45 | 14.89420 | -17.86920 | 37894 ft | 454 kts | 291° |
| 2026-05-04 18:46 | 14.91715 | -17.93009 | 37893 ft | 454 kts | 291° |
| 2026-05-04 18:46 | 14.94005 | -17.99089 | 37894 ft | 454 kts | 291° |
| 2026-05-04 18:47 | 14.96272 | -18.05131 | 37893 ft | 454 kts | 291° |
| 2026-05-04 18:47 | 14.98544 | -18.11210 | 37894 ft | 454 kts | 291° |
| 2026-05-04 18:48 | 15.00818 | -18.17302 | 37894 ft | 454 kts | 291° |
| 2026-05-04 18:48 | 15.03092 | -18.23403 | 37893 ft | 454 kts | 291° |
| 2026-05-04 18:49 | 15.05366 | -18.29507 | 37894 ft | 454 kts | 291° |
| 2026-05-04 18:49 | 15.07629 | -18.35587 | 37894 ft | 454 kts | 291° |
| 2026-05-04 18:50 | 15.09898 | -18.41689 | 37893 ft | 453 kts | 291° |
| 2026-05-04 18:50 | 15.12156 | -18.47766 | 37894 ft | 454 kts | 291° |
| 2026-05-04 18:51 | 15.14418 | -18.53862 | 37894 ft | 454 kts | 291° |
| 2026-05-04 18:51 | 15.16682 | -18.59970 | 37893 ft | 454 kts | 291° |
| 2026-05-04 18:52 | 15.18940 | -18.66064 | 37894 ft | 454 kts | 291° |
| 2026-05-04 18:52 | 15.21205 | -18.72188 | 37893 ft | 454 kts | 291° |
| 2026-05-04 18:53 | 15.23459 | -18.78281 | 37893 ft | 454 kts | 291° |
| 2026-05-04 18:53 | 15.25698 | -18.84343 | 37893 ft | 454 kts | 291° |
| 2026-05-04 18:54 | 15.27953 | -18.90452 | 37893 ft | 454 kts | 291° |
| 2026-05-04 18:54 | 15.30216 | -18.96592 | 37893 ft | 454 kts | 291° |
| 2026-05-04 18:55 | 15.32465 | -19.02699 | 37893 ft | 454 kts | 291° |
| 2026-05-04 18:55 | 15.35825 | -19.11831 | 37893 ft | 454 kts | 291° |
| 2026-05-04 18:56 | 15.38074 | -19.17953 | 37893 ft | 454 kts | 291° |
| 2026-05-04 18:56 | 15.40321 | -19.24074 | 37893 ft | 454 kts | 291° |
| 2026-05-04 18:57 | 15.42564 | -19.30191 | 37893 ft | 454 kts | 291° |
| 2026-05-04 18:57 | 15.44800 | -19.36291 | 37893 ft | 454 kts | 291° |
| 2026-05-04 18:58 | 15.47034 | -19.42396 | 37893 ft | 454 kts | 291° |
| 2026-05-04 18:58 | 15.49274 | -19.48522 | 37893 ft | 454 kts | 291° |
| 2026-05-04 18:59 | 15.51510 | -19.54642 | 37893 ft | 454 kts | 291° |
| 2026-05-04 18:59 | 15.53734 | -19.60735 | 37893 ft | 454 kts | 291° |
| 2026-05-04 19:00 | 15.55964 | -19.66853 | 37894 ft | 454 kts | 291° |
| 2026-05-04 19:00 | 15.58199 | -19.72990 | 37893 ft | 454 kts | 291° |
| 2026-05-04 19:01 | 15.60424 | -19.79105 | 37893 ft | 454 kts | 291° |
| 2026-05-04 19:01 | 15.62636 | -19.85192 | 37893 ft | 453 kts | 291° |
| 2026-05-04 19:02 | 15.64871 | -19.91349 | 37893 ft | 454 kts | 291° |
| 2026-05-04 19:02 | 15.67101 | -19.97419 | 37892 ft | 454 kts | 293° |
| 2026-05-04 19:03 | 15.69785 | -20.03323 | 37893 ft | 453 kts | 298° |
| 2026-05-04 19:03 | 15.72827 | -20.09063 | 37893 ft | 453 kts | 299° |
| 2026-05-04 19:04 | 15.75883 | -20.14800 | 37893 ft | 454 kts | 299° |
| 2026-05-04 19:04 | 15.78919 | -20.20512 | 37893 ft | 453 kts | 299° |
| 2026-05-04 19:05 | 15.81969 | -20.26257 | 37893 ft | 454 kts | 299° |
| 2026-05-04 19:05 | 15.84995 | -20.31966 | 37893 ft | 453 kts | 299° |
| 2026-05-04 19:06 | 15.88024 | -20.37685 | 37893 ft | 453 kts | 299° |
| 2026-05-04 19:06 | 15.91071 | -20.43442 | 37893 ft | 453 kts | 299° |
| 2026-05-04 19:07 | 15.94103 | -20.49176 | 37893 ft | 454 kts | 299° |
| 2026-05-04 19:07 | 15.97128 | -20.54900 | 37893 ft | 453 kts | 299° |
| 2026-05-04 19:08 | 16.00153 | -20.60630 | 37893 ft | 453 kts | 299° |
| 2026-05-04 19:08 | 16.03191 | -20.66389 | 37893 ft | 453 kts | 299° |
| 2026-05-04 19:09 | 16.06218 | -20.72133 | 37893 ft | 453 kts | 299° |
| 2026-05-04 19:09 | 16.09730 | -20.78800 | 37893 ft | 453 kts | 299° |
| 2026-05-04 19:10 | 16.12243 | -20.83576 | 37893 ft | 453 kts | 298° |
| 2026-05-04 19:10 | 16.15270 | -20.89334 | 37893 ft | 454 kts | 298° |
| 2026-05-04 19:11 | 16.18299 | -20.95099 | 37893 ft | 453 kts | 298° |
| 2026-05-04 19:11 | 16.21317 | -21.00848 | 37893 ft | 454 kts | 299° |
| 2026-05-04 19:12 | 16.25845 | -21.09480 | 37893 ft | 454 kts | 298° |
| 2026-05-04 19:13 | 16.28880 | -21.15275 | 37893 ft | 453 kts | 298° |
| 2026-05-04 19:13 | 16.31876 | -21.20999 | 37893 ft | 453 kts | 299° |
| 2026-05-04 19:14 | 16.34906 | -21.26792 | 37893 ft | 453 kts | 299° |
| 2026-05-04 19:14 | 16.37902 | -21.32525 | 37893 ft | 453 kts | 298° |
| 2026-05-04 19:15 | 16.40922 | -21.38307 | 37893 ft | 453 kts | 298° |
| 2026-05-04 19:15 | 16.44422 | -21.45017 | 37893 ft | 453 kts | 299° |
| 2026-05-04 19:16 | 16.46921 | -21.49812 | 37893 ft | 454 kts | 298° |
| 2026-05-04 19:16 | 16.49936 | -21.55600 | 37893 ft | 453 kts | 298° |
| 2026-05-04 19:17 | 16.52944 | -21.61378 | 37893 ft | 453 kts | 298° |
| 2026-05-04 19:17 | 16.55943 | -21.67148 | 37893 ft | 453 kts | 298° |
| 2026-05-04 19:18 | 16.58923 | -21.72882 | 37893 ft | 454 kts | 298° |
| 2026-05-04 19:18 | 16.61941 | -21.78697 | 37893 ft | 454 kts | 298° |
| 2026-05-04 19:19 | 16.64930 | -21.84460 | 37893 ft | 453 kts | 298° |
| 2026-05-04 19:19 | 16.67917 | -21.90223 | 37893 ft | 453 kts | 298° |
| 2026-05-04 19:20 | 16.70924 | -21.96031 | 37893 ft | 453 kts | 298° |
| 2026-05-04 19:20 | 16.73904 | -22.01791 | 37892 ft | 453 kts | 298° |
| 2026-05-04 19:21 | 16.76893 | -22.07572 | 37892 ft | 453 kts | 298° |
| 2026-05-04 19:21 | 16.79872 | -22.13341 | 37893 ft | 453 kts | 298° |
| 2026-05-04 19:22 | 16.82873 | -22.19156 | 37892 ft | 453 kts | 298° |
| 2026-05-04 19:22 | 16.85845 | -22.24920 | 37892 ft | 453 kts | 298° |
| 2026-05-04 19:23 | 16.88829 | -22.30712 | 37892 ft | 453 kts | 298° |
| 2026-05-04 19:23 | 16.91803 | -22.36492 | 37893 ft | 454 kts | 298° |
| 2026-05-04 19:24 | 16.94786 | -22.42291 | 37893 ft | 453 kts | 298° |
| 2026-05-04 19:24 | 16.97773 | -22.48105 | 37893 ft | 453 kts | 298° |
| 2026-05-04 19:25 | 17.00734 | -22.53873 | 37893 ft | 453 kts | 298° |
| 2026-05-04 19:25 | 17.03711 | -22.59677 | 37893 ft | 454 kts | 298° |
| 2026-05-04 19:26 | 17.06690 | -22.65490 | 37893 ft | 453 kts | 298° |
| 2026-05-04 19:26 | 17.09682 | -22.71333 | 37893 ft | 454 kts | 298° |
| 2026-05-04 19:27 | 17.12631 | -22.77099 | 37893 ft | 454 kts | 298° |
| 2026-05-04 19:27 | 17.15609 | -22.82924 | 37893 ft | 454 kts | 298° |
| 2026-05-04 19:28 | 17.18572 | -22.88728 | 37893 ft | 454 kts | 298° |
| 2026-05-04 19:28 | 17.21542 | -22.94549 | 37894 ft | 454 kts | 298° |
| 2026-05-04 19:29 | 17.24517 | -23.00384 | 37893 ft | 453 kts | 298° |
| 2026-05-04 19:29 | 17.27469 | -23.06180 | 37893 ft | 454 kts | 298° |
| 2026-05-04 19:30 | 17.30435 | -23.12008 | 37894 ft | 453 kts | 298° |
| 2026-05-04 19:30 | 17.33400 | -23.17841 | 37894 ft | 453 kts | 298° |
| 2026-05-04 19:31 | 17.36346 | -23.23639 | 37893 ft | 453 kts | 298° |
| 2026-05-04 19:31 | 17.39309 | -23.29477 | 37893 ft | 454 kts | 298° |
| 2026-05-04 19:32 | 17.42250 | -23.35279 | 37893 ft | 453 kts | 298° |
| 2026-05-04 19:32 | 17.45205 | -23.41111 | 37893 ft | 453 kts | 298° |
| 2026-05-04 19:33 | 17.48172 | -23.46972 | 37893 ft | 453 kts | 298° |
| 2026-05-04 19:33 | 17.51117 | -23.52797 | 37893 ft | 453 kts | 298° |
| 2026-05-04 19:34 | 17.54044 | -23.58590 | 37893 ft | 453 kts | 298° |
| 2026-05-04 19:34 | 17.56991 | -23.64428 | 37893 ft | 453 kts | 298° |
| 2026-05-04 19:35 | 17.59947 | -23.70289 | 37893 ft | 453 kts | 298° |
| 2026-05-04 19:35 | 17.62879 | -23.76109 | 37893 ft | 453 kts | 298° |
| 2026-05-04 19:36 | 17.65805 | -23.81921 | 37893 ft | 454 kts | 298° |
| 2026-05-04 19:36 | 17.68758 | -23.87791 | 37893 ft | 453 kts | 298° |
| 2026-05-04 19:37 | 17.71701 | -23.93649 | 37893 ft | 454 kts | 298° |
| 2026-05-04 19:37 | 17.74634 | -23.99491 | 37893 ft | 454 kts | 298° |
| 2026-05-04 19:38 | 17.77562 | -24.05327 | 37893 ft | 454 kts | 298° |
| 2026-05-04 19:38 | 17.80487 | -24.11164 | 37893 ft | 454 kts | 298° |
| 2026-05-04 19:39 | 17.83412 | -24.17009 | 37893 ft | 453 kts | 298° |
| 2026-05-04 19:39 | 17.86344 | -24.22870 | 37893 ft | 454 kts | 298° |
| 2026-05-04 19:40 | 17.89267 | -24.28719 | 37893 ft | 453 kts | 298° |
| 2026-05-04 19:40 | 17.92185 | -24.34564 | 37893 ft | 453 kts | 298° |
| 2026-05-04 19:41 | 17.95108 | -24.40423 | 37893 ft | 453 kts | 298° |
| 2026-05-04 19:41 | 17.98033 | -24.46292 | 37893 ft | 453 kts | 298° |
| 2026-05-04 19:42 | 18.00953 | -24.52158 | 37893 ft | 454 kts | 298° |
| 2026-05-04 19:42 | 18.03873 | -24.58028 | 37893 ft | 453 kts | 298° |
| 2026-05-04 19:43 | 18.06778 | -24.63874 | 37893 ft | 453 kts | 298° |
| 2026-05-04 19:43 | 18.09701 | -24.69762 | 37893 ft | 454 kts | 297° |
| 2026-05-04 19:44 | 18.12594 | -24.75593 | 37894 ft | 454 kts | 297° |
| 2026-05-04 19:44 | 18.15505 | -24.81468 | 37893 ft | 453 kts | 297° |
| 2026-05-04 19:45 | 18.18408 | -24.87333 | 37893 ft | 453 kts | 297° |
| 2026-05-04 19:45 | 18.21322 | -24.93225 | 37893 ft | 453 kts | 297° |
| 2026-05-04 19:46 | 18.24230 | -24.99111 | 37893 ft | 453 kts | 297° |
| 2026-05-04 19:46 | 18.27136 | -25.04996 | 37893 ft | 453 kts | 297° |
| 2026-05-04 19:47 | 18.30024 | -25.10852 | 37893 ft | 454 kts | 297° |
| 2026-05-04 19:47 | 18.32934 | -25.16758 | 37893 ft | 453 kts | 297° |
| 2026-05-04 19:48 | 18.35831 | -25.22642 | 37893 ft | 453 kts | 297° |
| 2026-05-04 19:48 | 18.38710 | -25.28498 | 37893 ft | 453 kts | 297° |
| 2026-05-04 19:49 | 18.41601 | -25.34383 | 37893 ft | 453 kts | 297° |
| 2026-05-04 19:49 | 18.44498 | -25.40284 | 37893 ft | 454 kts | 297° |
| 2026-05-04 19:50 | 18.47386 | -25.46175 | 37893 ft | 453 kts | 297° |
| 2026-05-04 19:50 | 18.50267 | -25.52054 | 37893 ft | 454 kts | 297° |
| 2026-05-04 19:51 | 18.53151 | -25.57949 | 37893 ft | 453 kts | 297° |
| 2026-05-04 19:51 | 18.56044 | -25.63866 | 37893 ft | 453 kts | 297° |
| 2026-05-04 19:52 | 18.58920 | -25.69752 | 37893 ft | 453 kts | 297° |
| 2026-05-04 19:52 | 18.61797 | -25.75650 | 37893 ft | 453 kts | 297° |
| 2026-05-04 19:53 | 18.64677 | -25.81556 | 37893 ft | 453 kts | 297° |
| 2026-05-04 19:53 | 18.67563 | -25.87482 | 37893 ft | 453 kts | 297° |
| 2026-05-04 19:54 | 18.70426 | -25.93366 | 37893 ft | 453 kts | 297° |
| 2026-05-04 19:54 | 18.73301 | -25.99281 | 37893 ft | 453 kts | 297° |
| 2026-05-04 19:55 | 18.76175 | -26.05200 | 37893 ft | 453 kts | 297° |
| 2026-05-04 19:55 | 18.79040 | -26.11105 | 37893 ft | 453 kts | 297° |
| 2026-05-04 19:56 | 18.81903 | -26.17013 | 37893 ft | 453 kts | 297° |
| 2026-05-04 19:56 | 18.84767 | -26.22929 | 37893 ft | 454 kts | 297° |
| 2026-05-04 19:57 | 18.87643 | -26.28875 | 37893 ft | 453 kts | 297° |
| 2026-05-04 19:57 | 18.90502 | -26.34792 | 37893 ft | 454 kts | 297° |
| 2026-05-04 19:58 | 18.93371 | -26.40735 | 37893 ft | 454 kts | 297° |
| 2026-05-04 19:58 | 18.96235 | -26.46675 | 37893 ft | 453 kts | 297° |
| 2026-05-04 19:59 | 18.99095 | -26.52612 | 37893 ft | 454 kts | 297° |
| 2026-05-04 19:59 | 19.01956 | -26.58555 | 37893 ft | 454 kts | 297° |
| 2026-05-04 20:00 | 19.04800 | -26.64470 | 37893 ft | 453 kts | 297° |
| 2026-05-04 20:00 | 19.08121 | -26.71387 | 37893 ft | 453 kts | 297° |
| 2026-05-04 20:01 | 19.10489 | -26.76324 | 37894 ft | 453 kts | 297° |
| 2026-05-04 20:01 | 19.13338 | -26.82266 | 37893 ft | 454 kts | 297° |
| 2026-05-04 20:02 | 19.16184 | -26.88211 | 37893 ft | 454 kts | 297° |
| 2026-05-04 20:02 | 19.19035 | -26.94170 | 37893 ft | 454 kts | 297° |
| 2026-05-04 20:03 | 19.21877 | -27.00119 | 37893 ft | 453 kts | 297° |
| 2026-05-04 20:03 | 19.24714 | -27.06061 | 37893 ft | 453 kts | 297° |
| 2026-05-04 20:04 | 19.27543 | -27.11993 | 37893 ft | 453 kts | 297° |
| 2026-05-04 20:04 | 19.30388 | -27.17966 | 37893 ft | 454 kts | 297° |
| 2026-05-04 20:05 | 19.33212 | -27.23898 | 37893 ft | 453 kts | 297° |
| 2026-05-04 20:05 | 19.36040 | -27.29849 | 37893 ft | 453 kts | 297° |
| 2026-05-04 20:06 | 19.38882 | -27.35831 | 37893 ft | 453 kts | 297° |
| 2026-05-04 20:06 | 19.41704 | -27.41781 | 37893 ft | 453 kts | 297° |
| 2026-05-04 20:07 | 19.44522 | -27.47726 | 37893 ft | 454 kts | 297° |
| 2026-05-04 20:07 | 19.47353 | -27.53705 | 37893 ft | 453 kts | 297° |
| 2026-05-04 20:08 | 19.50172 | -27.59667 | 37893 ft | 453 kts | 297° |
| 2026-05-04 20:08 | 19.52984 | -27.65619 | 37893 ft | 453 kts | 297° |
| 2026-05-04 20:09 | 19.55817 | -27.71621 | 37893 ft | 453 kts | 297° |
| 2026-05-04 20:09 | 19.58619 | -27.77564 | 37893 ft | 453 kts | 297° |
| 2026-05-04 20:10 | 19.61433 | -27.83539 | 37893 ft | 453 kts | 297° |
| 2026-05-04 20:10 | 19.64724 | -27.90533 | 37893 ft | 453 kts | 297° |
| 2026-05-04 20:11 | 19.67062 | -27.95508 | 37893 ft | 454 kts | 297° |
| 2026-05-04 20:11 | 19.69868 | -28.01486 | 37893 ft | 453 kts | 297° |
| 2026-05-04 20:12 | 19.72671 | -28.07461 | 37893 ft | 453 kts | 296° |
| 2026-05-04 20:12 | 19.75479 | -28.13456 | 37893 ft | 453 kts | 296° |
| 2026-05-04 20:13 | 19.78280 | -28.19441 | 37893 ft | 453 kts | 297° |
| 2026-05-04 20:13 | 19.81078 | -28.25426 | 37893 ft | 453 kts | 297° |
| 2026-05-04 20:14 | 19.83873 | -28.31410 | 37893 ft | 454 kts | 297° |
| 2026-05-04 20:14 | 19.86674 | -28.37414 | 37893 ft | 454 kts | 296° |
| 2026-05-04 20:15 | 19.89471 | -28.43416 | 37893 ft | 454 kts | 297° |
| 2026-05-04 20:15 | 19.92265 | -28.49418 | 37893 ft | 454 kts | 297° |
| 2026-05-04 20:16 | 19.95046 | -28.55397 | 37893 ft | 454 kts | 297° |
| 2026-05-04 20:16 | 19.97850 | -28.61436 | 37893 ft | 454 kts | 296° |
| 2026-05-04 20:17 | 20.00629 | -28.67425 | 37893 ft | 454 kts | 296° |
| 2026-05-04 20:17 | 20.03406 | -28.73416 | 37893 ft | 453 kts | 296° |
| 2026-05-04 20:18 | 20.06185 | -28.79417 | 37893 ft | 453 kts | 296° |
| 2026-05-04 20:18 | 20.08978 | -28.85456 | 37893 ft | 454 kts | 296° |
| 2026-05-04 20:19 | 20.11747 | -28.91449 | 37893 ft | 453 kts | 296° |
| 2026-05-04 20:19 | 20.14523 | -28.97464 | 37893 ft | 454 kts | 296° |
| 2026-05-04 20:20 | 20.17294 | -29.03476 | 37893 ft | 454 kts | 296° |
| 2026-05-04 20:20 | 20.20074 | -29.09513 | 37893 ft | 454 kts | 296° |
| 2026-05-04 20:21 | 20.22839 | -29.15523 | 37893 ft | 453 kts | 296° |
| 2026-05-04 20:21 | 20.27001 | -29.24585 | 37893 ft | 453 kts | 296° |
| 2026-05-04 20:22 | 20.29763 | -29.30604 | 37893 ft | 453 kts | 296° |
| 2026-05-04 20:22 | 20.32517 | -29.36615 | 37893 ft | 454 kts | 296° |
| 2026-05-04 20:23 | 20.35277 | -29.42645 | 37893 ft | 453 kts | 296° |
| 2026-05-04 20:23 | 20.38051 | -29.48713 | 37893 ft | 453 kts | 296° |
| 2026-05-04 20:24 | 20.40795 | -29.54719 | 37893 ft | 454 kts | 296° |
| 2026-05-04 20:24 | 20.43562 | -29.60787 | 37893 ft | 454 kts | 296° |
| 2026-05-04 20:25 | 20.46298 | -29.66790 | 37893 ft | 453 kts | 296° |
| 2026-05-04 20:25 | 20.49059 | -29.72855 | 37893 ft | 453 kts | 296° |
| 2026-05-04 20:26 | 20.51805 | -29.78897 | 37893 ft | 453 kts | 296° |
| 2026-05-04 20:26 | 20.54546 | -29.84931 | 37893 ft | 454 kts | 296° |
| 2026-05-04 20:27 | 20.57294 | -29.90989 | 37893 ft | 454 kts | 296° |
| 2026-05-04 20:27 | 20.60035 | -29.97037 | 37893 ft | 453 kts | 296° |
| 2026-05-04 20:28 | 20.62776 | -30.03093 | 37893 ft | 454 kts | 296° |
| 2026-05-04 20:28 | 20.65516 | -30.09153 | 37893 ft | 454 kts | 296° |
| 2026-05-04 20:29 | 20.68242 | -30.15190 | 37893 ft | 454 kts | 296° |
| 2026-05-04 20:29 | 20.70977 | -30.21252 | 37893 ft | 454 kts | 296° |
| 2026-05-04 20:30 | 20.73708 | -30.27315 | 37893 ft | 454 kts | 296° |
| 2026-05-04 20:30 | 20.76440 | -30.33385 | 37893 ft | 454 kts | 296° |
| 2026-05-04 20:31 | 20.79171 | -30.39460 | 37893 ft | 454 kts | 296° |
| 2026-05-04 20:31 | 20.81899 | -30.45538 | 37893 ft | 454 kts | 296° |
| 2026-05-04 20:32 | 20.84623 | -30.51610 | 37893 ft | 454 kts | 296° |
| 2026-05-04 20:32 | 20.87346 | -30.57690 | 37893 ft | 454 kts | 296° |
| 2026-05-04 20:33 | 20.90074 | -30.63788 | 37893 ft | 453 kts | 296° |
| 2026-05-04 20:33 | 20.92790 | -30.69865 | 37894 ft | 453 kts | 296° |
| 2026-05-04 20:34 | 20.95496 | -30.75930 | 37893 ft | 454 kts | 296° |
| 2026-05-04 20:34 | 20.98310 | -30.81969 | 37893 ft | 453 kts | 297° |
| 2026-05-04 20:35 | 21.01204 | -30.87963 | 37893 ft | 453 kts | 297° |
| 2026-05-04 20:35 | 21.04087 | -30.93959 | 37893 ft | 453 kts | 297° |
| 2026-05-04 20:36 | 21.06950 | -30.99938 | 37893 ft | 453 kts | 297° |
| 2026-05-04 20:36 | 21.09821 | -31.05947 | 37893 ft | 454 kts | 297° |
| 2026-05-04 20:37 | 21.12686 | -31.11956 | 37893 ft | 453 kts | 297° |
| 2026-05-04 20:37 | 21.15559 | -31.17990 | 37893 ft | 453 kts | 297° |
| 2026-05-04 20:38 | 21.18421 | -31.24008 | 37893 ft | 453 kts | 297° |
| 2026-05-04 20:38 | 21.21276 | -31.30016 | 37893 ft | 453 kts | 297° |
| 2026-05-04 20:39 | 21.24118 | -31.36005 | 37893 ft | 453 kts | 297° |
| 2026-05-04 20:39 | 21.26981 | -31.42044 | 37893 ft | 453 kts | 297° |
| 2026-05-04 20:40 | 21.29836 | -31.48073 | 37893 ft | 453 kts | 297° |
| 2026-05-04 20:40 | 21.32686 | -31.54098 | 37893 ft | 454 kts | 297° |
| 2026-05-04 20:41 | 21.35536 | -31.60133 | 37894 ft | 453 kts | 297° |
| 2026-05-04 20:41 | 21.38359 | -31.66115 | 37894 ft | 453 kts | 297° |
| 2026-05-04 20:42 | 21.41218 | -31.72180 | 37893 ft | 454 kts | 297° |
| 2026-05-04 20:42 | 21.44041 | -31.78176 | 37893 ft | 453 kts | 297° |
| 2026-05-04 20:43 | 21.46895 | -31.84245 | 37893 ft | 453 kts | 297° |
| 2026-05-04 20:43 | 21.49714 | -31.90247 | 37893 ft | 453 kts | 297° |
| 2026-05-04 20:44 | 21.52543 | -31.96277 | 37893 ft | 454 kts | 297° |
| 2026-05-04 20:44 | 21.55390 | -32.02352 | 37893 ft | 453 kts | 297° |
| 2026-05-04 20:45 | 21.58219 | -32.08396 | 37893 ft | 453 kts | 297° |
| 2026-05-04 20:45 | 21.61042 | -32.14433 | 37893 ft | 454 kts | 297° |
| 2026-05-04 20:46 | 21.63861 | -32.20470 | 37893 ft | 453 kts | 297° |
| 2026-05-04 20:46 | 21.66685 | -32.26523 | 37893 ft | 453 kts | 297° |
| 2026-05-04 20:47 | 21.69508 | -32.32582 | 37893 ft | 454 kts | 297° |
| 2026-05-04 20:47 | 21.72325 | -32.38636 | 37893 ft | 453 kts | 297° |
| 2026-05-04 20:48 | 21.75133 | -32.44677 | 37893 ft | 453 kts | 297° |
| 2026-05-04 20:48 | 21.77939 | -32.50719 | 37893 ft | 453 kts | 297° |
| 2026-05-04 20:49 | 21.80751 | -32.56785 | 37893 ft | 453 kts | 297° |
| 2026-05-04 20:49 | 21.83553 | -32.62833 | 37893 ft | 453 kts | 297° |
| 2026-05-04 20:50 | 21.86366 | -32.68915 | 37894 ft | 454 kts | 296° |
| 2026-05-04 20:50 | 21.89184 | -32.75011 | 37893 ft | 454 kts | 296° |
| 2026-05-04 20:51 | 21.91990 | -32.81091 | 37893 ft | 453 kts | 296° |
| 2026-05-04 20:51 | 21.94782 | -32.87149 | 37893 ft | 453 kts | 296° |
| 2026-05-04 20:52 | 21.97568 | -32.93199 | 37893 ft | 454 kts | 296° |
| 2026-05-04 20:52 | 22.00370 | -32.99290 | 37893 ft | 454 kts | 296° |
| 2026-05-04 20:53 | 22.03159 | -33.05364 | 37893 ft | 453 kts | 296° |
| 2026-05-04 20:53 | 22.05955 | -33.11456 | 37894 ft | 454 kts | 296° |
| 2026-05-04 20:54 | 22.08745 | -33.17547 | 37893 ft | 454 kts | 296° |
| 2026-05-04 20:54 | 22.11529 | -33.23629 | 37894 ft | 453 kts | 296° |
| 2026-05-04 20:55 | 22.14319 | -33.29733 | 37893 ft | 454 kts | 296° |
| 2026-05-04 20:55 | 22.17094 | -33.35809 | 37893 ft | 453 kts | 296° |
| 2026-05-04 20:56 | 22.19881 | -33.41920 | 37893 ft | 454 kts | 296° |
| 2026-05-04 20:56 | 22.22649 | -33.47997 | 37893 ft | 454 kts | 296° |
| 2026-05-04 20:57 | 22.25435 | -33.54122 | 37893 ft | 454 kts | 296° |
| 2026-05-04 20:57 | 22.28206 | -33.60221 | 37893 ft | 454 kts | 296° |
| 2026-05-04 20:58 | 22.30980 | -33.66333 | 37894 ft | 454 kts | 296° |
| 2026-05-04 20:58 | 22.33742 | -33.72428 | 37893 ft | 454 kts | 296° |
| 2026-05-04 20:59 | 22.36516 | -33.78554 | 37893 ft | 454 kts | 296° |
| 2026-05-04 20:59 | 22.39274 | -33.84654 | 37893 ft | 454 kts | 296° |
| 2026-05-04 21:00 | 22.42044 | -33.90787 | 37894 ft | 453 kts | 296° |
| 2026-05-04 21:00 | 22.44803 | -33.96904 | 37893 ft | 454 kts | 296° |
| 2026-05-04 21:01 | 22.47576 | -34.03059 | 37893 ft | 454 kts | 296° |
| 2026-05-04 21:01 | 22.50315 | -34.09148 | 37893 ft | 453 kts | 296° |
| 2026-05-04 21:02 | 22.53068 | -34.15272 | 37893 ft | 454 kts | 296° |
| 2026-05-04 21:02 | 22.55836 | -34.21441 | 37893 ft | 453 kts | 296° |
| 2026-05-04 21:03 | 22.58582 | -34.27566 | 37893 ft | 454 kts | 296° |
| 2026-05-04 21:03 | 22.61325 | -34.33693 | 37893 ft | 453 kts | 296° |
| 2026-05-04 21:04 | 22.64065 | -34.39822 | 37893 ft | 453 kts | 296° |
| 2026-05-04 21:04 | 22.66813 | -34.45974 | 37893 ft | 454 kts | 296° |
| 2026-05-04 21:05 | 22.69540 | -34.52088 | 37893 ft | 454 kts | 296° |
| 2026-05-04 21:05 | 22.72281 | -34.58241 | 37893 ft | 453 kts | 296° |
| 2026-05-04 21:06 | 22.75020 | -34.64398 | 37893 ft | 454 kts | 296° |
| 2026-05-04 21:06 | 22.77740 | -34.70519 | 37893 ft | 454 kts | 296° |
| 2026-05-04 21:07 | 22.80477 | -34.76688 | 37893 ft | 454 kts | 296° |
| 2026-05-04 21:07 | 22.83207 | -34.82845 | 37893 ft | 454 kts | 296° |
| 2026-05-04 21:08 | 22.86376 | -34.90006 | 37893 ft | 454 kts | 296° |
| 2026-05-04 21:08 | 22.89110 | -34.96191 | 37893 ft | 453 kts | 296° |
| 2026-05-04 21:09 | 22.91363 | -35.01293 | 37893 ft | 453 kts | 296° |
| 2026-05-04 21:09 | 22.94086 | -35.07469 | 37893 ft | 454 kts | 296° |
| 2026-05-04 21:10 | 22.96804 | -35.13640 | 37893 ft | 454 kts | 296° |
| 2026-05-04 21:10 | 22.99512 | -35.19796 | 37894 ft | 453 kts | 296° |
| 2026-05-04 21:11 | 23.02235 | -35.25997 | 37893 ft | 453 kts | 296° |
| 2026-05-04 21:11 | 23.04933 | -35.32146 | 37893 ft | 453 kts | 296° |
| 2026-05-04 21:12 | 23.07653 | -35.38353 | 37893 ft | 454 kts | 296° |
| 2026-05-04 21:12 | 23.10346 | -35.44508 | 37893 ft | 453 kts | 296° |
| 2026-05-04 21:13 | 23.13056 | -35.50709 | 37893 ft | 454 kts | 296° |
| 2026-05-04 21:13 | 23.15739 | -35.56857 | 37894 ft | 453 kts | 296° |
| 2026-05-04 21:14 | 23.18446 | -35.63068 | 37893 ft | 454 kts | 296° |
| 2026-05-04 21:14 | 23.21130 | -35.69233 | 37893 ft | 453 kts | 295° |
| 2026-05-04 21:15 | 23.23820 | -35.75418 | 37893 ft | 454 kts | 295° |
| 2026-05-04 21:15 | 23.26517 | -35.81632 | 37893 ft | 453 kts | 295° |
| 2026-05-04 21:16 | 23.29210 | -35.87841 | 37893 ft | 453 kts | 295° |
| 2026-05-04 21:16 | 23.31893 | -35.94037 | 37893 ft | 453 kts | 295° |
| 2026-05-04 21:17 | 23.34576 | -36.00239 | 37893 ft | 454 kts | 295° |
| 2026-05-04 21:17 | 23.37259 | -36.06453 | 37893 ft | 454 kts | 295° |
| 2026-05-04 21:18 | 23.39933 | -36.12653 | 37893 ft | 453 kts | 295° |
| 2026-05-04 21:18 | 23.42605 | -36.18854 | 37893 ft | 453 kts | 295° |
| 2026-05-04 21:19 | 23.45284 | -36.25081 | 37893 ft | 454 kts | 295° |
| 2026-05-04 21:19 | 23.47955 | -36.31298 | 37893 ft | 454 kts | 295° |